createdAt,value
2018-02-23T00:00:23.713Z,101389.30
2018-02-23T00:02:52.729Z,101395.97
2018-02-23T00:05:21.655Z,101393.91
2018-02-23T00:09:25.235Z,101398.30
2018-02-23T00:13:24.573Z,101392.89
2018-02-23T00:15:53.744Z,101389.24
2018-02-23T00:20:22.701Z,101390.70
2018-02-23T00:22:51.710Z,101382.45
2018-02-23T00:25:20.692Z,101384.47
2018-02-23T00:27:49.647Z,101393.36
2018-02-23T00:30:18.668Z,101386.32
2018-02-23T00:32:47.729Z,101391.03
2018-02-23T00:35:16.768Z,101390.88
2018-02-23T00:37:45.660Z,101387.48
2018-02-23T00:40:50.743Z,101396.97
2018-02-23T00:43:19.675Z,101398.48
2018-02-23T00:45:48.667Z,101395.41
2018-02-23T00:48:17.738Z,101397.58
2018-02-23T00:50:46.671Z,101401.65
2018-02-23T00:53:15.722Z,101400.05
2018-02-23T00:55:44.690Z,101393.52
2018-02-23T00:58:13.752Z,101398.86
2018-02-23T01:00:42.796Z,101396.95
2018-02-23T01:03:11.668Z,101394.80
2018-02-23T01:05:40.660Z,101396.82
2018-02-23T01:10:06.751Z,101385.75
2018-02-23T01:12:35.744Z,101388.33
2018-02-23T01:15:04.772Z,101387.52
2018-02-23T01:17:33.713Z,101391.78
2018-02-23T01:20:02.744Z,101392.47
2018-02-23T01:22:31.714Z,101395.58
2018-02-23T01:25:00.765Z,101388.69
2018-02-23T01:27:29.737Z,101387.89
2018-02-23T01:29:58.770Z,101384.66
2018-02-23T01:32:27.736Z,101390.91
2018-02-23T01:34:56.751Z,101387.56
2018-02-23T01:37:25.754Z,101391.94
2018-02-23T01:42:32.716Z,101391.86
2018-02-23T01:45:01.676Z,101391.04
2018-02-23T01:47:30.636Z,101391.98
2018-02-23T01:49:59.703Z,101393.73
2018-02-23T01:52:28.640Z,101394.20
2018-02-23T01:54:57.697Z,101395.02
2018-02-23T01:57:26.641Z,101389.61
2018-02-23T01:59:55.616Z,101385.76
2018-02-23T02:02:24.734Z,101387.91
2018-02-23T02:04:53.673Z,101393.31
2018-02-23T02:07:22.663Z,101392.95
2018-02-23T02:11:45.749Z,101392.84
2018-02-23T02:14:14.671Z,101389.56
2018-02-23T02:16:43.744Z,101389.16
2018-02-23T02:19:12.698Z,101396.42
2018-02-23T02:21:41.695Z,101392.16
2018-02-23T02:24:10.627Z,101393.70
2018-02-23T02:26:39.706Z,101392.77
2018-02-23T02:29:08.716Z,101397.11
2018-02-23T02:31:37.784Z,101395.03
2018-02-23T02:34:06.858Z,101396.64
2018-02-23T02:36:35.860Z,101390.01
2018-02-23T02:39:04.639Z,101393.80
2018-02-23T02:41:33.744Z,101390.25
2018-02-23T02:45:13.475Z,101387.66
2018-02-23T02:47:41.866Z,101390.72
2018-02-23T02:50:10.777Z,101387.49
2018-02-23T02:52:39.743Z,101394.58
2018-02-23T02:55:08.786Z,101399.66
2018-02-23T02:57:37.757Z,101392.19
2018-02-23T03:00:06.756Z,101396.80
2018-02-23T03:02:35.756Z,101399.92
2018-02-23T03:06:15.504Z,101400.83
2018-02-23T03:08:44.494Z,101397.55
2018-02-23T03:11:13.740Z,101396.03
2018-02-23T03:13:42.743Z,101398.59
2018-02-23T03:16:11.674Z,101403.69
2018-02-23T03:19:10.584Z,101400.92
2018-02-23T03:24:03.402Z,101403.24
2018-02-23T03:26:32.681Z,101399.79
2018-02-23T03:29:01.672Z,101399.16
2018-02-23T03:31:30.649Z,101402.66
2018-02-23T03:33:59.745Z,101408.14
2018-02-23T03:36:28.778Z,101404.03
2018-02-23T03:39:03.450Z,101407.07
2018-02-23T03:41:32.646Z,101408.11
2018-02-23T03:44:02.208Z,101409.14
2018-02-23T03:46:31.671Z,101406.84
2018-02-23T03:49:00.822Z,101410.68
2018-02-23T03:51:29.665Z,101412.22
2018-02-23T03:53:58.855Z,101412.74
2018-02-23T03:56:27.699Z,101410.50
2018-02-23T03:58:56.623Z,101409.11
2018-02-23T04:01:25.666Z,101406.55
2018-02-23T04:03:54.664Z,101412.36
2018-02-23T04:06:23.660Z,101416.81
2018-02-23T04:08:52.705Z,101418.57
2018-02-23T04:11:22.441Z,101422.52
2018-02-23T04:13:51.620Z,101420.33
2018-02-23T04:16:20.855Z,101416.25
2018-02-23T04:18:49.712Z,101422.34
2018-02-23T04:21:18.726Z,101413.52
2018-02-23T04:23:47.736Z,101422.01
2018-02-23T04:26:16.716Z,101420.36
2018-02-23T04:28:45.673Z,101421.30
2018-02-23T04:31:14.615Z,101416.84
2018-02-23T04:33:43.639Z,101424.23
2018-02-23T04:36:12.716Z,101422.42
2018-02-23T04:39:39.720Z,101421.30
2018-02-23T04:42:08.689Z,101421.06
2018-02-23T04:44:37.691Z,101424.05
2018-02-23T04:49:47.589Z,101432.01
2018-02-23T04:52:16.629Z,101432.77
2018-02-23T04:54:45.688Z,101435.83
2018-02-23T04:57:14.680Z,101441.24
2018-02-23T04:59:43.696Z,101439.06
2018-02-23T05:02:14.320Z,101440.78
2018-02-23T05:04:43.457Z,101451.58
2018-02-23T05:07:12.651Z,101452.02
2018-02-23T05:09:41.638Z,101452.83
2018-02-23T05:12:10.676Z,101457.97
2018-02-23T05:14:39.717Z,101454.39
2018-02-23T05:17:08.738Z,101458.83
2018-02-23T05:19:37.748Z,101461.52
2018-02-23T05:22:06.732Z,101460.83
2018-02-23T05:24:35.709Z,101460.78
2018-02-23T05:27:04.635Z,101469.53
2018-02-23T05:29:33.685Z,101475.73
2018-02-23T05:32:02.639Z,101471.78
2018-02-23T05:34:31.647Z,101480.27
2018-02-23T05:37:00.680Z,101479.89
2018-02-23T05:39:29.771Z,101484.33
2018-02-23T05:41:58.708Z,101480.53
2018-02-23T05:44:27.643Z,101484.60
2018-02-23T05:46:56.811Z,101485.22
2018-02-23T05:49:25.690Z,101488.61
2018-02-23T05:51:54.660Z,101484.73
2018-02-23T05:55:56.661Z,101489.55
2018-02-23T05:58:25.744Z,101485.84
2018-02-23T06:00:54.767Z,101485.45
2018-02-23T06:03:23.744Z,101491.81
2018-02-23T06:05:52.726Z,101493.16
2018-02-23T06:08:21.736Z,101497.20
2018-02-23T06:10:50.683Z,101500.81
2018-02-23T06:13:19.712Z,101498.96
2018-02-23T06:15:54.572Z,101502.09
2018-02-23T06:18:29.620Z,101504.20
2018-02-23T06:20:58.701Z,101502.75
2018-02-23T06:23:28.205Z,101508.67
2018-02-23T06:25:57.745Z,101509.48
2018-02-23T06:28:27.308Z,101514.20
2018-02-23T06:30:55.748Z,101515.03
2018-02-23T06:33:24.672Z,101519.74
2018-02-23T06:35:53.773Z,101521.02
2018-02-23T06:41:15.569Z,101531.16
2018-02-23T06:43:44.757Z,101534.94
2018-02-23T06:46:13.690Z,101537.09
2018-02-23T06:48:43.528Z,101538.20
2018-02-23T06:51:13.234Z,101544.39
2018-02-23T06:54:53.296Z,101550.91
2018-02-23T06:57:22.963Z,101549.72
2018-02-23T07:00:50.387Z,101547.61
2018-02-23T07:03:19.651Z,101558.66
2018-02-23T07:05:48.779Z,101554.06
2018-02-23T07:08:17.708Z,101562.66
2018-02-23T07:10:46.971Z,101559.45
2018-02-23T07:13:15.512Z,101563.50
2018-02-23T07:15:44.688Z,101556.94
2018-02-23T07:18:13.616Z,101560.45
2018-02-23T07:20:42.676Z,101563.15
2018-02-23T07:23:11.948Z,101565.17
2018-02-23T07:25:45.452Z,101567.48
2018-02-23T07:28:14.422Z,101556.72
2018-02-23T07:30:44.035Z,101558.86
2018-02-23T07:33:13.716Z,101561.05
2018-02-23T07:38:12.500Z,101567.53
2018-02-23T07:40:41.686Z,101566.51
2018-02-23T07:43:10.977Z,101571.69
2018-02-23T07:45:39.588Z,101567.23
2018-02-23T07:48:08.655Z,101576.64
2018-02-23T07:51:20.687Z,101573.20
2018-02-23T07:53:49.638Z,101580.21
2018-02-23T07:56:18.703Z,101575.44
2018-02-23T07:58:47.707Z,101571.92
2018-02-23T08:01:16.730Z,101570.05
2018-02-23T08:03:45.700Z,101569.64
2018-02-23T08:06:14.694Z,101571.14
2018-02-23T08:08:43.782Z,101573.28
2018-02-23T08:11:12.662Z,101568.89
2018-02-23T08:13:41.781Z,101579.09
2018-02-23T08:16:10.677Z,101574.34
2018-02-23T08:18:39.728Z,101575.97
2018-02-23T08:21:08.703Z,101572.55
2018-02-23T08:23:38.236Z,101582.89
2018-02-23T08:26:07.632Z,101580.19
2018-02-23T08:28:36.706Z,101574.86
2018-02-23T08:31:05.610Z,101578.09
2018-02-23T08:33:34.724Z,101579.33
2018-02-23T08:36:03.764Z,101583.11
2018-02-23T08:38:32.617Z,101582.25
2018-02-23T08:41:01.792Z,101580.77
2018-02-23T08:43:30.683Z,101583.70
2018-02-23T08:45:59.641Z,101580.27
2018-02-23T08:48:28.769Z,101585.17
2018-02-23T08:50:57.734Z,101584.78
2018-02-23T08:53:26.607Z,101585.86
2018-02-23T08:55:55.657Z,101588.56
2018-02-23T08:58:24.693Z,101585.61
2018-02-23T09:00:53.662Z,101587.63
2018-02-23T09:03:22.704Z,101588.80
2018-02-23T09:05:51.673Z,101584.05
2018-02-23T09:08:20.758Z,101586.13
2018-02-23T09:10:49.680Z,101589.25
2018-02-23T09:13:18.732Z,101584.47
2018-02-23T09:15:47.649Z,101585.61
2018-02-23T09:18:16.668Z,101589.74
2018-02-23T09:20:45.667Z,101585.22
2018-02-23T09:23:14.686Z,101580.73
2018-02-23T09:25:43.782Z,101591.65
2018-02-23T09:28:12.680Z,101590.41
2018-02-23T09:30:41.750Z,101586.72
2018-02-23T09:35:00.716Z,101581.96
2018-02-23T09:37:29.786Z,101583.84
2018-02-23T09:39:58.771Z,101581.16
2018-02-23T09:42:28.160Z,101573.44
2018-02-23T09:44:57.372Z,101581.38
2018-02-23T09:47:26.617Z,101577.57
2018-02-23T09:49:55.758Z,101577.06
2018-02-23T09:52:24.889Z,101583.16
2018-02-23T09:54:53.023Z,101578.68
2018-02-23T09:57:22.634Z,101575.88
2018-02-23T09:59:51.629Z,101574.53
2018-02-23T10:02:20.771Z,101578.21
2018-02-23T10:04:49.695Z,101577.98
2018-02-23T10:07:18.606Z,101571.48
2018-02-23T10:09:47.721Z,101569.36
2018-02-23T10:12:16.664Z,101567.51
2018-02-23T10:14:45.823Z,101566.00
2018-02-23T10:17:14.750Z,101565.13
2018-02-23T10:19:43.868Z,101563.81
2018-02-23T10:22:12.702Z,101561.33
2018-02-23T10:24:42.039Z,101565.52
2018-02-23T10:27:10.676Z,101563.70
2018-02-23T10:29:39.632Z,101566.52
2018-02-23T10:32:08.686Z,101555.85
2018-02-23T10:34:37.624Z,101563.08
2018-02-23T10:37:06.682Z,101560.64
2018-02-23T10:39:35.850Z,101557.69
2018-02-23T10:42:04.754Z,101555.82
2018-02-23T10:47:24.768Z,101559.84
2018-02-23T10:49:53.744Z,101556.08
2018-02-23T10:52:22.771Z,101556.27
2018-02-23T10:54:51.906Z,101558.86
2018-02-23T10:58:18.632Z,101550.56
2018-02-23T11:00:47.667Z,101544.64
2018-02-23T11:03:16.715Z,101550.97
2018-02-23T11:05:45.703Z,101540.02
2018-02-23T11:08:15.700Z,101543.11
2018-02-23T11:10:44.595Z,101538.44
2018-02-23T11:13:13.648Z,101540.42
2018-02-23T11:15:42.650Z,101529.40
2018-02-23T11:18:11.690Z,101527.64
2018-02-23T11:20:40.773Z,101533.95
2018-02-23T11:23:09.737Z,101531.11
2018-02-23T11:28:16.596Z,101530.47
2018-02-23T11:30:45.730Z,101521.95
2018-02-23T11:33:14.635Z,101518.98
2018-02-23T11:35:43.704Z,101519.49
2018-02-23T11:38:12.668Z,101511.80
2018-02-23T11:42:53.282Z,101520.84
2018-02-23T11:45:22.558Z,101518.42
2018-02-23T11:47:51.761Z,101511.80
2018-02-23T11:50:21.659Z,101516.91
2018-02-23T11:52:51.028Z,101510.54
2018-02-23T11:55:19.563Z,101505.80
2018-02-23T12:00:28.627Z,101506.50
2018-02-23T12:02:57.753Z,101508.13
2018-02-23T12:05:26.856Z,101504.87
2018-02-23T12:07:56.164Z,101507.44
2018-02-23T12:10:25.722Z,101506.80
2018-02-23T12:12:54.724Z,101502.45
2018-02-23T12:16:32.663Z,101500.66
2018-02-23T12:19:01.741Z,101501.63
2018-02-23T12:21:30.871Z,101500.55
2018-02-23T12:24:00.175Z,101497.97
2018-02-23T12:26:29.636Z,101497.17
2018-02-23T12:28:58.744Z,101497.83
2018-02-23T12:31:54.615Z,101508.34
2018-02-23T12:34:23.709Z,101507.21
2018-02-23T12:36:52.712Z,101503.14
2018-02-23T12:39:21.696Z,101502.44
2018-02-23T12:41:50.638Z,101501.33
2018-02-23T12:44:19.828Z,101504.81
2018-02-23T12:46:48.701Z,101500.50
2018-02-23T12:49:17.738Z,101500.33
2018-02-23T12:51:46.720Z,101505.73
2018-02-23T12:54:15.736Z,101501.80
2018-02-23T12:56:44.691Z,101506.81
2018-02-23T12:59:13.754Z,101501.40
2018-02-23T13:04:47.451Z,101498.40
2018-02-23T13:07:16.475Z,101496.52
2018-02-23T13:09:45.742Z,101498.30
2018-02-23T13:12:14.763Z,101496.70
2018-02-23T13:14:49.575Z,101495.52
2018-02-23T13:17:18.782Z,101505.69
2018-02-23T13:19:47.891Z,101507.86
2018-02-23T13:24:49.776Z,101495.94
2018-02-23T13:27:20.938Z,101503.48
2018-02-23T13:29:49.534Z,101501.09
2018-02-23T13:32:19.570Z,101499.67
2018-02-23T13:39:35.693Z,101492.89
2018-02-23T13:42:04.768Z,101499.86
2018-02-23T13:44:33.810Z,101490.48
2018-02-23T13:47:02.673Z,101493.05
2018-02-23T13:49:31.737Z,101489.25
2018-02-23T13:52:00.762Z,101481.97
2018-02-23T13:54:29.696Z,101478.39
2018-02-23T13:59:01.692Z,101490.97
2018-02-23T14:04:15.981Z,101492.19
2018-02-23T14:06:48.562Z,101482.66
2018-02-23T14:09:17.607Z,101483.09
2018-02-23T14:11:46.691Z,101484.44
2018-02-23T14:17:29.051Z,101485.63
2018-02-23T14:20:48.066Z,101476.87
2018-02-23T14:23:17.446Z,101483.70
2018-02-23T14:25:46.691Z,101481.73
2018-02-23T14:28:15.702Z,101482.06
2018-02-23T14:30:44.750Z,101482.08
2018-02-23T14:33:13.727Z,101484.77
2018-02-23T14:35:43.283Z,101489.86
2018-02-23T14:38:12.790Z,101492.08
2018-02-23T14:40:41.771Z,101487.72
2018-02-23T14:43:10.738Z,101488.53
2018-02-23T14:45:39.639Z,101482.12
2018-02-23T14:48:08.811Z,101485.39
2018-02-23T14:50:49.709Z,101483.75
2018-02-23T14:53:18.726Z,101486.92
2018-02-23T14:55:47.944Z,101484.63
2018-02-23T14:58:16.190Z,101492.16
2018-02-23T15:00:45.660Z,101483.32
2018-02-23T15:03:14.902Z,101487.61
2018-02-23T15:05:43.271Z,101477.67
2018-02-23T15:08:12.762Z,101487.02
2018-02-23T15:10:42.184Z,101477.34
2018-02-23T15:13:11.221Z,101479.78
2018-02-23T15:15:40.247Z,101480.38
2018-02-23T15:18:09.629Z,101479.70
2018-02-23T15:21:23.611Z,101481.49
2018-02-23T15:23:52.693Z,101480.16
2018-02-23T15:26:21.753Z,101486.48
2018-02-23T15:28:50.766Z,101485.90
2018-02-23T15:31:31.702Z,101482.30
2018-02-23T15:34:02.244Z,101484.20
2018-02-23T15:36:31.721Z,101486.25
2018-02-23T15:39:00.790Z,101487.02
2018-02-23T15:41:30.315Z,101485.44
2018-02-23T15:46:11.770Z,101487.08
2018-02-23T15:52:21.554Z,101481.47
2018-02-23T15:54:50.757Z,101476.78
2018-02-23T16:00:02.715Z,101477.74
2018-02-23T16:02:35.849Z,101481.48
2018-02-23T16:05:05.678Z,101486.12
2018-02-23T16:07:34.667Z,101482.09
2018-02-23T16:10:03.706Z,101488.50
2018-02-23T16:12:32.700Z,101485.64
2018-02-23T16:16:46.653Z,101497.13
2018-02-23T16:19:15.779Z,101497.94
2018-02-23T16:25:15.158Z,101491.89
2018-02-23T16:27:44.669Z,101492.52
2018-02-23T16:32:53.520Z,101509.17
2018-02-23T16:35:22.640Z,101506.70
2018-02-23T16:37:51.786Z,101510.04
2018-02-23T16:40:21.421Z,101506.47
2018-02-23T16:42:50.625Z,101508.31
2018-02-23T16:45:19.681Z,101502.47
2018-02-23T16:47:48.620Z,101501.08
2018-02-23T16:50:17.712Z,101514.92
2018-02-23T16:52:46.700Z,101513.58
2018-02-23T16:55:15.623Z,101511.78
2018-02-23T16:57:44.656Z,101513.97
2018-02-23T17:00:14.509Z,101509.94
2018-02-23T17:02:43.464Z,101510.48
2018-02-23T17:05:12.689Z,101513.28
2018-02-23T17:07:41.706Z,101511.78
2018-02-23T17:10:10.659Z,101522.18
2018-02-23T17:12:39.623Z,101511.05
2018-02-23T17:15:08.624Z,101503.81
2018-02-23T17:17:37.580Z,101501.64
2018-02-23T17:20:06.700Z,101516.48
2018-02-23T17:22:36.254Z,101513.88
2018-02-23T17:25:05.649Z,101520.48
2018-02-23T17:27:34.695Z,101519.91
2018-02-23T17:30:03.758Z,101513.64
2018-02-23T17:32:32.706Z,101509.48
2018-02-23T17:36:44.732Z,101507.26
2018-02-23T17:39:13.620Z,101505.62
2018-02-23T17:44:26.733Z,101506.38
2018-02-23T17:46:55.652Z,101500.41
2018-02-23T17:49:24.703Z,101501.85
2018-02-23T17:51:53.665Z,101507.52
2018-02-23T17:56:57.665Z,101507.72
2018-02-23T17:59:26.630Z,101514.39
2018-02-23T18:01:55.613Z,101518.45
2018-02-23T18:04:24.608Z,101518.70
2018-02-23T18:09:36.698Z,101524.23
2018-02-23T18:12:05.628Z,101519.67
2018-02-23T18:14:34.713Z,101526.41
2018-02-23T18:17:03.755Z,101517.89
2018-02-23T18:19:32.697Z,101516.07
2018-02-23T18:22:01.640Z,101512.23
2018-02-23T18:24:30.776Z,101511.27
2018-02-23T18:26:59.659Z,101519.31
2018-02-23T18:29:28.751Z,101518.79
2018-02-23T18:31:57.852Z,101525.61
2018-02-23T18:34:26.759Z,101529.94
2018-02-23T18:36:55.713Z,101529.57
2018-02-23T18:40:00.442Z,101525.86
2018-02-23T18:42:29.439Z,101525.79
2018-02-23T18:44:58.447Z,101528.52
2018-02-23T18:47:27.718Z,101526.72
2018-02-23T18:49:56.734Z,101521.36
2018-02-23T18:52:25.681Z,101530.91
2018-02-23T18:54:54.633Z,101529.09
2018-02-23T18:57:24.737Z,101522.50
2018-02-23T18:59:53.740Z,101525.70
2018-02-23T19:02:22.626Z,101519.71
2018-02-23T19:04:51.660Z,101516.77
2018-02-23T19:07:20.795Z,101508.27
2018-02-23T19:12:35.720Z,101508.23
2018-02-23T19:15:05.615Z,101515.37
2018-02-23T19:17:34.696Z,101516.64
2018-02-23T19:20:03.669Z,101519.03
2018-02-23T19:22:32.720Z,101522.73
2018-02-23T19:25:01.717Z,101525.25
2018-02-23T19:27:30.688Z,101532.44
2018-02-23T19:29:59.597Z,101525.79
2018-02-23T19:32:31.399Z,101527.49
2018-02-23T19:35:24.691Z,101520.84
2018-02-23T19:37:53.690Z,101522.91
2018-02-23T19:40:23.438Z,101523.34
2018-02-23T19:42:52.464Z,101511.11
2018-02-23T19:45:21.637Z,101511.88
2018-02-23T19:48:23.433Z,101505.53
2018-02-23T19:50:53.528Z,101506.64
2018-02-23T19:53:22.530Z,101507.89
2018-02-23T19:56:57.636Z,101498.53
2018-02-23T19:59:26.884Z,101494.02
2018-02-23T20:04:36.164Z,101493.98
2018-02-23T20:07:05.437Z,101487.13
2018-02-23T20:11:31.704Z,101478.23
2018-02-23T20:14:01.346Z,101485.46
2018-02-23T20:16:30.888Z,101477.09
2018-02-23T20:28:47.187Z,101458.62
2018-02-23T20:31:16.831Z,101454.33
2018-02-23T20:33:45.619Z,101452.50
2018-02-23T20:36:14.714Z,101445.81
2018-02-23T20:38:43.607Z,101441.28
2018-02-23T20:41:12.712Z,101435.13
2018-02-23T20:43:41.713Z,101434.98
2018-02-23T20:46:10.763Z,101431.25
2018-02-23T20:48:39.749Z,101430.05
2018-02-23T20:51:08.646Z,101427.63
2018-02-23T20:53:37.696Z,101422.77
2018-02-23T20:56:07.538Z,101419.80
2018-02-23T20:58:37.288Z,101415.39
2018-02-23T21:01:06.206Z,101407.16
2018-02-23T21:03:35.465Z,101409.95
2018-02-23T21:06:04.512Z,101407.06
2018-02-23T21:13:34.662Z,101404.34
2018-02-23T21:16:04.712Z,101411.03
2018-02-23T21:18:33.727Z,101400.59
2018-02-23T21:23:31.762Z,101395.12
2018-02-23T21:26:00.777Z,101393.44
2018-02-23T21:28:29.786Z,101393.59
2018-02-23T21:30:58.766Z,101395.22
2018-02-23T21:36:19.482Z,101382.66
2018-02-23T21:38:48.772Z,101378.05
2018-02-23T21:41:17.772Z,101381.23
2018-02-23T21:43:47.571Z,101379.47
2018-02-23T21:46:16.676Z,101376.16
2018-02-23T21:48:45.734Z,101361.77
2018-02-23T21:51:14.849Z,101360.22
2018-02-23T21:53:43.741Z,101362.84
2018-02-23T21:56:13.197Z,101364.50
2018-02-23T21:58:42.629Z,101359.61
2018-02-23T22:11:07.659Z,101366.47
2018-02-23T22:13:38.470Z,101357.58
2018-02-23T22:16:07.707Z,101359.69
2018-02-23T22:18:55.697Z,101361.86
2018-02-23T22:21:24.770Z,101355.73
2018-02-23T22:23:53.681Z,101364.50
2018-02-23T22:28:16.734Z,101356.81
2018-02-23T22:30:45.723Z,101355.98
2018-02-23T22:33:14.697Z,101354.91
2018-02-23T22:35:45.055Z,101351.98
2018-02-23T22:38:13.870Z,101349.70
2018-02-23T22:40:43.714Z,101351.34
2018-02-23T22:43:12.860Z,101343.25
2018-02-23T22:45:42.061Z,101344.38
2018-02-23T22:48:11.755Z,101335.27
2018-02-23T22:50:41.857Z,101339.64
2018-02-23T22:53:10.854Z,101342.55
2018-02-23T22:55:39.720Z,101333.15
2018-02-23T22:58:08.877Z,101333.25
2018-02-23T23:00:38.624Z,101335.41
2018-02-23T23:03:07.681Z,101335.52
2018-02-23T23:05:36.720Z,101331.91
2018-02-23T23:08:05.709Z,101328.33
2018-02-23T23:11:33.174Z,101330.73
2018-02-23T23:15:35.426Z,101327.59
2018-02-23T23:18:04.444Z,101339.14
2018-02-23T23:21:40.558Z,101333.69
2018-02-23T23:24:09.729Z,101334.22
2018-02-23T23:26:38.688Z,101334.31
2018-02-23T23:30:40.636Z,101330.42
2018-02-23T23:33:09.693Z,101328.75
2018-02-23T23:35:38.617Z,101322.55
2018-02-23T23:38:07.694Z,101325.52
2018-02-23T23:40:36.751Z,101325.61
2018-02-23T23:43:05.623Z,101326.22
2018-02-23T23:45:34.709Z,101321.97
2018-02-23T23:48:03.705Z,101315.63
2018-02-23T23:50:32.656Z,101319.18
2018-02-23T23:53:01.865Z,101321.75
2018-02-23T23:55:30.726Z,101325.33
2018-02-23T23:57:59.659Z,101316.01
